sensor_id;sensor_type;location;lat;lon;timestamp;temperature;humidity
584;HTU21D;27024;54.068;12.116;2023-12-28T00:02:16;4.39;118.99
584;HTU21D;27024;54.068;12.116;2023-12-28T00:04:43;4.30;118.99
584;HTU21D;27024;54.068;12.116;2023-12-28T00:07:09;4.03;118.99
584;HTU21D;27024;54.068;12.116;2023-12-28T00:09:37;4.53;118.99
584;HTU21D;27024;54.068;12.116;2023-12-28T00:12:04;4.43;118.99
584;HTU21D;27024;54.068;12.116;2023-12-28T00:14:31;4.30;118.99
584;HTU21D;27024;54.068;12.116;2023-12-28T00:16:58;4.47;118.99
584;HTU21D;27024;54.068;12.116;2023-12-28T00:19:25;4.36;118.99
584;HTU21D;27024;54.068;12.116;2023-12-28T00:21:53;4.28;118.99
584;HTU21D;27024;54.068;12.116;2023-12-28T00:24:20;4.45;118.99
584;HTU21D;27024;54.068;12.116;2023-12-28T00:26:47;4.59;118.99
584;HTU21D;27024;54.068;12.116;2023-12-28T00:29:14;4.58;118.99
584;HTU21D;27024;54.068;12.116;2023-12-28T00:31:41;4.72;118.99
584;HTU21D;27024;54.068;12.116;2023-12-28T00:34:08;4.67;118.99
584;HTU21D;27024;54.068;12.116;2023-12-28T00:36:36;4.89;118.99
584;HTU21D;27024;54.068;12.116;2023-12-28T00:39:03;4.76;118.99
584;HTU21D;27024;54.068;12.116;2023-12-28T00:41:30;4.60;118.99
584;HTU21D;27024;54.068;12.116;2023-12-28T00:43:57;4.80;118.99
584;HTU21D;27024;54.068;12.116;2023-12-28T00:46:24;4.65;118.99
584;HTU21D;27024;54.068;12.116;2023-12-28T00:48:51;4.43;118.99
584;HTU21D;27024;54.068;12.116;2023-12-28T00:51:18;4.56;118.99
584;HTU21D;27024;54.068;12.116;2023-12-28T00:53:45;4.42;118.99
584;HTU21D;27024;54.068;12.116;2023-12-28T00:56:12;4.52;118.99
584;HTU21D;27024;54.068;12.116;2023-12-28T00:58:39;4.72;118.99
584;HTU21D;27024;54.068;12.116;2023-12-28T01:01:08;4.69;118.99
584;HTU21D;27024;54.068;12.116;2023-12-28T01:03:36;4.49;118.99
584;HTU21D;27024;54.068;12.116;2023-12-28T01:06:05;4.39;118.99
584;HTU21D;27024;54.068;12.116;2023-12-28T01:08:32;4.43;118.99
584;HTU21D;27024;54.068;12.116;2023-12-28T01:11:01;4.52;118.99
584;HTU21D;27024;54.068;12.116;2023-12-28T01:13:29;4.88;118.99
584;HTU21D;27024;54.068;12.116;2023-12-28T01:15:56;4.95;118.99
584;HTU21D;27024;54.068;12.116;2023-12-28T01:18:23;5.00;118.99
584;HTU21D;27024;54.068;12.116;2023-12-28T01:20:50;5.07;118.99
584;HTU21D;27024;54.068;12.116;2023-12-28T01:23:17;4.84;118.99
584;HTU21D;27024;54.068;12.116;2023-12-28T01:25:44;4.79;118.99
584;HTU21D;27024;54.068;12.116;2023-12-28T01:28:11;5.02;118.99
584;HTU21D;27024;54.068;12.116;2023-12-28T01:30:38;5.11;118.99
584;HTU21D;27024;54.068;12.116;2023-12-28T01:33:05;4.93;118.99
584;HTU21D;27024;54.068;12.116;2023-12-28T01:35:32;4.94;118.99
584;HTU21D;27024;54.068;12.116;2023-12-28T01:37:59;4.97;118.99
584;HTU21D;27024;54.068;12.116;2023-12-28T01:40:28;5.03;118.99
584;HTU21D;27024;54.068;12.116;2023-12-28T01:42:55;4.84;118.99
584;HTU21D;27024;54.068;12.116;2023-12-28T01:45:23;4.83;118.99
584;HTU21D;27024;54.068;12.116;2023-12-28T01:47:50;4.82;118.99
584;HTU21D;27024;54.068;12.116;2023-12-28T01:50:20;4.93;118.99
584;HTU21D;27024;54.068;12.116;2023-12-28T01:52:48;4.94;118.99
584;HTU21D;27024;54.068;12.116;2023-12-28T01:55:16;4.96;118.99
584;HTU21D;27024;54.068;12.116;2023-12-28T01:57:44;4.94;118.99
584;HTU21D;27024;54.068;12.116;2023-12-28T02:00:12;4.94;118.99
584;HTU21D;27024;54.068;12.116;2023-12-28T02:02:39;5.03;118.99
584;HTU21D;27024;54.068;12.116;2023-12-28T02:05:10;5.06;118.99
584;HTU21D;27024;54.068;12.116;2023-12-28T02:07:39;5.11;118.99
584;HTU21D;27024;54.068;12.116;2023-12-28T02:10:07;5.11;118.99
584;HTU21D;27024;54.068;12.116;2023-12-28T02:12:34;5.12;118.99
584;HTU21D;27024;54.068;12.116;2023-12-28T02:15:01;5.15;118.99
584;HTU21D;27024;54.068;12.116;2023-12-28T02:17:33;5.19;118.99
584;HTU21D;27024;54.068;12.116;2023-12-28T02:20:03;5.18;118.99
584;HTU21D;27024;54.068;12.116;2023-12-28T02:22:34;5.20;118.99
584;HTU21D;27024;54.068;12.116;2023-12-28T02:25:09;5.27;118.99
584;HTU21D;27024;54.068;12.116;2023-12-28T02:27:47;5.33;118.99
584;HTU21D;27024;54.068;12.116;2023-12-28T02:30:18;5.34;118.99
584;HTU21D;27024;54.068;12.116;2023-12-28T02:35:41;5.37;118.99
584;HTU21D;27024;54.068;12.116;2023-12-28T02:38:09;5.41;118.99
584;HTU21D;27024;54.068;12.116;2023-12-28T02:40:39;5.56;118.99
584;HTU21D;27024;54.068;12.116;2023-12-28T02:43:07;5.56;118.99
584;HTU21D;27024;54.068;12.116;2023-12-28T02:45:35;5.57;118.99
584;HTU21D;27024;54.068;12.116;2023-12-28T02:48:03;5.63;118.99
584;HTU21D;27024;54.068;12.116;2023-12-28T02:50:31;5.66;118.99
584;HTU21D;27024;54.068;12.116;2023-12-28T02:52:59;5.65;118.99
584;HTU21D;27024;54.068;12.116;2023-12-28T02:55:26;5.74;118.99
584;HTU21D;27024;54.068;12.116;2023-12-28T02:57:55;5.70;118.99
584;HTU21D;27024;54.068;12.116;2023-12-28T03:00:22;5.81;118.99
584;HTU21D;27024;54.068;12.116;2023-12-28T03:02:49;5.81;118.99
584;HTU21D;27024;54.068;12.116;2023-12-28T03:05:17;5.86;118.99
584;HTU21D;27024;54.068;12.116;2023-12-28T03:07:44;5.87;118.99
584;HTU21D;27024;54.068;12.116;2023-12-28T03:10:12;5.84;118.99
584;HTU21D;27024;54.068;12.116;2023-12-28T03:12:41;5.90;118.99
584;HTU21D;27024;54.068;12.116;2023-12-28T03:15:08;5.94;118.99
584;HTU21D;27024;54.068;12.116;2023-12-28T03:17:35;5.89;118.99
584;HTU21D;27024;54.068;12.116;2023-12-28T03:20:04;5.89;118.99
584;HTU21D;27024;54.068;12.116;2023-12-28T03:22:32;5.96;118.99
584;HTU21D;27024;54.068;12.116;2023-12-28T03:24:59;5.90;118.99
584;HTU21D;27024;54.068;12.116;2023-12-28T03:27:26;5.91;118.99
584;HTU21D;27024;54.068;12.116;2023-12-28T03:29:54;5.96;118.99
584;HTU21D;27024;54.068;12.116;2023-12-28T03:32:20;5.98;118.99
584;HTU21D;27024;54.068;12.116;2023-12-28T03:34:47;5.94;118.99
584;HTU21D;27024;54.068;12.116;2023-12-28T03:37:14;5.97;118.99
584;HTU21D;27024;54.068;12.116;2023-12-28T03:39:41;5.99;118.99
584;HTU21D;27024;54.068;12.116;2023-12-28T03:42:09;6.00;118.99
584;HTU21D;27024;54.068;12.116;2023-12-28T03:44:36;6.02;118.99
584;HTU21D;27024;54.068;12.116;2023-12-28T03:47:03;6.10;118.99
584;HTU21D;27024;54.068;12.116;2023-12-28T03:49:30;6.05;118.99
584;HTU21D;27024;54.068;12.116;2023-12-28T03:51:57;6.07;118.99
584;HTU21D;27024;54.068;12.116;2023-12-28T03:54:24;6.13;118.99
584;HTU21D;27024;54.068;12.116;2023-12-28T03:56:51;6.09;118.99
584;HTU21D;27024;54.068;12.116;2023-12-28T03:59:18;6.12;118.99
584;HTU21D;27024;54.068;12.116;2023-12-28T04:01:45;6.15;118.99
584;HTU21D;27024;54.068;12.116;2023-12-28T04:04:12;6.15;118.99
584;HTU21D;27024;54.068;12.116;2023-12-28T04:06:39;6.14;118.99
584;HTU21D;27024;54.068;12.116;2023-12-28T04:09:11;6.16;118.99
584;HTU21D;27024;54.068;12.116;2023-12-28T04:11:38;6.20;118.99
584;HTU21D;27024;54.068;12.116;2023-12-28T04:14:05;6.17;118.99
584;HTU21D;27024;54.068;12.116;2023-12-28T04:16:32;6.16;118.99
584;HTU21D;27024;54.068;12.116;2023-12-28T04:18:59;6.13;118.99
584;HTU21D;27024;54.068;12.116;2023-12-28T04:21:26;6.09;118.99
584;HTU21D;27024;54.068;12.116;2023-12-28T04:23:53;6.20;118.99
584;HTU21D;27024;54.068;12.116;2023-12-28T04:26:20;6.22;118.99
584;HTU21D;27024;54.068;12.116;2023-12-28T04:28:47;6.17;118.99
584;HTU21D;27024;54.068;12.116;2023-12-28T04:31:14;6.17;118.99
584;HTU21D;27024;54.068;12.116;2023-12-28T04:33:41;6.19;118.99
584;HTU21D;27024;54.068;12.116;2023-12-28T04:36:10;6.15;118.99
584;HTU21D;27024;54.068;12.116;2023-12-28T04:38:37;6.13;118.99
584;HTU21D;27024;54.068;12.116;2023-12-28T04:41:05;6.14;118.99
584;HTU21D;27024;54.068;12.116;2023-12-28T04:43:32;6.09;118.99
584;HTU21D;27024;54.068;12.116;2023-12-28T04:46:03;6.11;118.99
584;HTU21D;27024;54.068;12.116;2023-12-28T04:48:31;6.06;118.99
584;HTU21D;27024;54.068;12.116;2023-12-28T04:51:02;6.05;118.99
584;HTU21D;27024;54.068;12.116;2023-12-28T04:53:29;6.01;118.99
584;HTU21D;27024;54.068;12.116;2023-12-28T04:55:56;6.09;118.99
584;HTU21D;27024;54.068;12.116;2023-12-28T04:58:23;6.15;118.99
584;HTU21D;27024;54.068;12.116;2023-12-28T05:00:50;6.08;118.99
584;HTU21D;27024;54.068;12.116;2023-12-28T05:03:17;6.22;118.99
584;HTU21D;27024;54.068;12.116;2023-12-28T05:05:45;6.13;118.99
584;HTU21D;27024;54.068;12.116;2023-12-28T05:08:12;6.07;118.99
584;HTU21D;27024;54.068;12.116;2023-12-28T05:10:39;6.10;118.99
584;HTU21D;27024;54.068;12.116;2023-12-28T05:13:05;6.24;118.99
584;HTU21D;27024;54.068;12.116;2023-12-28T05:15:33;6.17;118.99
584;HTU21D;27024;54.068;12.116;2023-12-28T05:18:00;6.13;118.99
584;HTU21D;27024;54.068;12.116;2023-12-28T05:20:27;6.11;118.99
584;HTU21D;27024;54.068;12.116;2023-12-28T05:22:54;6.08;118.99
584;HTU21D;27024;54.068;12.116;2023-12-28T05:25:21;6.13;118.99
584;HTU21D;27024;54.068;12.116;2023-12-28T05:27:48;6.08;118.99
584;HTU21D;27024;54.068;12.116;2023-12-28T05:30:15;6.08;118.99
584;HTU21D;27024;54.068;12.116;2023-12-28T05:32:43;6.11;118.99
584;HTU21D;27024;54.068;12.116;2023-12-28T05:35:09;6.05;118.99
584;HTU21D;27024;54.068;12.116;2023-12-28T05:37:36;6.11;118.99
584;HTU21D;27024;54.068;12.116;2023-12-28T05:40:04;6.01;118.99
584;HTU21D;27024;54.068;12.116;2023-12-28T05:42:31;6.10;118.99
584;HTU21D;27024;54.068;12.116;2023-12-28T05:44:58;6.02;118.99
584;HTU21D;27024;54.068;12.116;2023-12-28T05:47:25;6.01;118.99
584;HTU21D;27024;54.068;12.116;2023-12-28T05:49:52;5.96;118.99
584;HTU21D;27024;54.068;12.116;2023-12-28T05:52:19;5.94;118.99
584;HTU21D;27024;54.068;12.116;2023-12-28T05:54:46;5.91;118.99
584;HTU21D;27024;54.068;12.116;2023-12-28T05:57:15;5.91;118.99
584;HTU21D;27024;54.068;12.116;2023-12-28T05:59:42;5.90;118.99
584;HTU21D;27024;54.068;12.116;2023-12-28T06:02:09;5.89;118.99
584;HTU21D;27024;54.068;12.116;2023-12-28T06:04:36;5.89;118.99
584;HTU21D;27024;54.068;12.116;2023-12-28T06:07:04;5.91;118.99
584;HTU21D;27024;54.068;12.116;2023-12-28T06:09:32;5.90;118.99
584;HTU21D;27024;54.068;12.116;2023-12-28T06:11:59;5.97;118.99
584;HTU21D;27024;54.068;12.116;2023-12-28T06:14:26;5.96;118.99
584;HTU21D;27024;54.068;12.116;2023-12-28T06:16:53;5.96;118.99
584;HTU21D;27024;54.068;12.116;2023-12-28T06:19:21;5.93;118.99
584;HTU21D;27024;54.068;12.116;2023-12-28T06:21:49;5.92;118.99
584;HTU21D;27024;54.068;12.116;2023-12-28T06:24:16;5.87;118.99
584;HTU21D;27024;54.068;12.116;2023-12-28T06:26:44;5.96;118.99
584;HTU21D;27024;54.068;12.116;2023-12-28T06:29:11;5.93;118.99
584;HTU21D;27024;54.068;12.116;2023-12-28T06:31:38;5.90;118.99
584;HTU21D;27024;54.068;12.116;2023-12-28T06:34:06;5.93;118.99
584;HTU21D;27024;54.068;12.116;2023-12-28T06:36:34;5.97;118.99
584;HTU21D;27024;54.068;12.116;2023-12-28T06:39:01;5.96;118.99
584;HTU21D;27024;54.068;12.116;2023-12-28T06:41:28;6.11;118.99
584;HTU21D;27024;54.068;12.116;2023-12-28T06:43:55;5.90;118.99
584;HTU21D;27024;54.068;12.116;2023-12-28T06:46:22;5.87;118.99
584;HTU21D;27024;54.068;12.116;2023-12-28T06:48:49;5.85;118.99
584;HTU21D;27024;54.068;12.116;2023-12-28T06:51:20;5.87;118.99
584;HTU21D;27024;54.068;12.116;2023-12-28T06:53:49;5.86;118.99
584;HTU21D;27024;54.068;12.116;2023-12-28T06:56:17;5.92;118.99
584;HTU21D;27024;54.068;12.116;2023-12-28T06:58:44;5.95;118.99
584;HTU21D;27024;54.068;12.116;2023-12-28T07:01:11;5.98;118.99
584;HTU21D;27024;54.068;12.116;2023-12-28T07:03:40;5.93;118.99
584;HTU21D;27024;54.068;12.116;2023-12-28T07:06:08;5.96;118.99
584;HTU21D;27024;54.068;12.116;2023-12-28T07:08:35;5.96;118.99
584;HTU21D;27024;54.068;12.116;2023-12-28T07:11:03;5.93;118.99
584;HTU21D;27024;54.068;12.116;2023-12-28T07:13:31;5.92;118.99
584;HTU21D;27024;54.068;12.116;2023-12-28T07:15:59;5.89;118.99
584;HTU21D;27024;54.068;12.116;2023-12-28T07:18:27;5.91;118.99
584;HTU21D;27024;54.068;12.116;2023-12-28T07:20:55;5.94;118.99
584;HTU21D;27024;54.068;12.116;2023-12-28T07:23:23;5.97;118.99
584;HTU21D;27024;54.068;12.116;2023-12-28T07:25:49;6.01;118.99
584;HTU21D;27024;54.068;12.116;2023-12-28T07:28:17;5.99;118.99
584;HTU21D;27024;54.068;12.116;2023-12-28T07:30:44;6.02;118.99
584;HTU21D;27024;54.068;12.116;2023-12-28T07:33:11;5.95;118.99
584;HTU21D;27024;54.068;12.116;2023-12-28T07:35:39;5.98;118.99
584;HTU21D;27024;54.068;12.116;2023-12-28T07:38:06;6.16;118.99
584;HTU21D;27024;54.068;12.116;2023-12-28T07:40:33;6.10;118.99
584;HTU21D;27024;54.068;12.116;2023-12-28T07:43:00;6.07;118.99
584;HTU21D;27024;54.068;12.116;2023-12-28T07:45:28;6.21;118.99
584;HTU21D;27024;54.068;12.116;2023-12-28T07:47:55;6.14;118.99
584;HTU21D;27024;54.068;12.116;2023-12-28T07:50:23;6.35;118.99
584;HTU21D;27024;54.068;12.116;2023-12-28T07:52:50;6.52;118.99
584;HTU21D;27024;54.068;12.116;2023-12-28T07:55:17;6.46;118.99
584;HTU21D;27024;54.068;12.116;2023-12-28T07:57:45;6.60;118.99
584;HTU21D;27024;54.068;12.116;2023-12-28T08:00:12;6.44;118.99
584;HTU21D;27024;54.068;12.116;2023-12-28T08:02:39;6.40;118.99
584;HTU21D;27024;54.068;12.116;2023-12-28T08:05:07;6.49;118.99
584;HTU21D;27024;54.068;12.116;2023-12-28T08:07:34;6.45;118.99
584;HTU21D;27024;54.068;12.116;2023-12-28T08:10:02;6.42;118.99
584;HTU21D;27024;54.068;12.116;2023-12-28T08:12:29;6.36;118.99
584;HTU21D;27024;54.068;12.116;2023-12-28T08:14:56;6.35;118.99
584;HTU21D;27024;54.068;12.116;2023-12-28T08:17:23;6.37;118.99
584;HTU21D;27024;54.068;12.116;2023-12-28T08:19:50;6.39;118.99
584;HTU21D;27024;54.068;12.116;2023-12-28T08:22:18;6.50;118.99
584;HTU21D;27024;54.068;12.116;2023-12-28T08:24:46;6.35;118.99
584;HTU21D;27024;54.068;12.116;2023-12-28T08:27:13;6.36;118.99
584;HTU21D;27024;54.068;12.116;2023-12-28T08:29:40;6.72;118.99
584;HTU21D;27024;54.068;12.116;2023-12-28T08:32:10;6.54;118.99
584;HTU21D;27024;54.068;12.116;2023-12-28T08:34:38;6.60;118.99
584;HTU21D;27024;54.068;12.116;2023-12-28T08:37:06;6.49;118.99
584;HTU21D;27024;54.068;12.116;2023-12-28T08:39:33;6.52;118.99
584;HTU21D;27024;54.068;12.116;2023-12-28T08:42:01;6.56;118.99
584;HTU21D;27024;54.068;12.116;2023-12-28T08:44:29;6.58;118.99
584;HTU21D;27024;54.068;12.116;2023-12-28T08:46:56;6.59;118.99
584;HTU21D;27024;54.068;12.116;2023-12-28T08:49:23;6.72;118.99
584;HTU21D;27024;54.068;12.116;2023-12-28T08:51:50;6.96;118.99
584;HTU21D;27024;54.068;12.116;2023-12-28T08:54:18;7.18;118.99
584;HTU21D;27024;54.068;12.116;2023-12-28T08:56:45;7.03;118.99
584;HTU21D;27024;54.068;12.116;2023-12-28T08:59:17;7.07;118.99
584;HTU21D;27024;54.068;12.116;2023-12-28T09:01:44;6.90;118.99
584;HTU21D;27024;54.068;12.116;2023-12-28T09:04:11;7.13;118.99
584;HTU21D;27024;54.068;12.116;2023-12-28T09:06:38;7.14;118.99
584;HTU21D;27024;54.068;12.116;2023-12-28T09:09:06;7.01;118.99
584;HTU21D;27024;54.068;12.116;2023-12-28T09:11:33;7.15;118.99
584;HTU21D;27024;54.068;12.116;2023-12-28T09:14:00;7.19;118.99
584;HTU21D;27024;54.068;12.116;2023-12-28T09:16:27;7.38;118.99
584;HTU21D;27024;54.068;12.116;2023-12-28T09:18:55;7.16;118.99
584;HTU21D;27024;54.068;12.116;2023-12-28T09:21:24;7.32;118.99
584;HTU21D;27024;54.068;12.116;2023-12-28T09:23:53;7.42;118.99
584;HTU21D;27024;54.068;12.116;2023-12-28T09:26:20;7.40;118.99
584;HTU21D;27024;54.068;12.116;2023-12-28T09:28:47;7.49;118.99
584;HTU21D;27024;54.068;12.116;2023-12-28T09:31:14;7.59;118.99
584;HTU21D;27024;54.068;12.116;2023-12-28T09:33:42;7.70;118.99
584;HTU21D;27024;54.068;12.116;2023-12-28T09:36:09;7.70;118.99
584;HTU21D;27024;54.068;12.116;2023-12-28T09:38:39;7.73;118.99
584;HTU21D;27024;54.068;12.116;2023-12-28T09:41:13;7.84;118.99
584;HTU21D;27024;54.068;12.116;2023-12-28T09:46:21;7.96;118.99
584;HTU21D;27024;54.068;12.116;2023-12-28T09:48:48;8.01;118.99
584;HTU21D;27024;54.068;12.116;2023-12-28T09:51:15;8.12;118.99
584;HTU21D;27024;54.068;12.116;2023-12-28T09:53:45;8.19;118.99
584;HTU21D;27024;54.068;12.116;2023-12-28T09:56:13;8.31;118.99
584;HTU21D;27024;54.068;12.116;2023-12-28T09:58:42;8.28;118.99
584;HTU21D;27024;54.068;12.116;2023-12-28T10:01:14;8.36;118.99
584;HTU21D;27024;54.068;12.116;2023-12-28T10:03:41;8.41;118.99
584;HTU21D;27024;54.068;12.116;2023-12-28T10:06:09;8.56;118.99
584;HTU21D;27024;54.068;12.116;2023-12-28T10:08:36;8.53;118.99
584;HTU21D;27024;54.068;12.116;2023-12-28T10:11:04;8.60;118.99
584;HTU21D;27024;54.068;12.116;2023-12-28T10:13:32;8.66;118.99
584;HTU21D;27024;54.068;12.116;2023-12-28T10:16:00;8.64;118.99
584;HTU21D;27024;54.068;12.116;2023-12-28T10:18:27;8.73;118.99
584;HTU21D;27024;54.068;12.116;2023-12-28T10:20:54;8.70;118.99
584;HTU21D;27024;54.068;12.116;2023-12-28T10:23:22;8.81;118.99
584;HTU21D;27024;54.068;12.116;2023-12-28T10:25:50;8.86;118.99
584;HTU21D;27024;54.068;12.116;2023-12-28T10:28:20;8.86;118.99
584;HTU21D;27024;54.068;12.116;2023-12-28T10:30:47;8.85;118.99
584;HTU21D;27024;54.068;12.116;2023-12-28T10:33:14;8.93;118.99
584;HTU21D;27024;54.068;12.116;2023-12-28T10:35:44;8.97;118.99
584;HTU21D;27024;54.068;12.116;2023-12-28T10:38:13;9.00;118.99
584;HTU21D;27024;54.068;12.116;2023-12-28T10:40:44;9.30;118.99
584;HTU21D;27024;54.068;12.116;2023-12-28T10:43:15;9.24;118.99
584;HTU21D;27024;54.068;12.116;2023-12-28T10:45:46;9.30;118.99
584;HTU21D;27024;54.068;12.116;2023-12-28T10:48:13;9.59;118.99
584;HTU21D;27024;54.068;12.116;2023-12-28T10:50:43;9.67;118.99
584;HTU21D;27024;54.068;12.116;2023-12-28T10:56:41;9.94;118.99
584;HTU21D;27024;54.068;12.116;2023-12-28T10:59:25;10.09;118.99
584;HTU21D;27024;54.068;12.116;2023-12-28T11:01:56;10.07;118.99
584;HTU21D;27024;54.068;12.116;2023-12-28T11:04:48;10.14;118.99
584;HTU21D;27024;54.068;12.116;2023-12-28T11:07:18;10.09;118.99
584;HTU21D;27024;54.068;12.116;2023-12-28T11:09:45;10.08;118.99
584;HTU21D;27024;54.068;12.116;2023-12-28T11:12:13;10.09;118.99
584;HTU21D;27024;54.068;12.116;2023-12-28T11:14:41;10.22;118.99
584;HTU21D;27024;54.068;12.116;2023-12-28T11:17:11;10.35;118.99
584;HTU21D;27024;54.068;12.116;2023-12-28T11:19:38;10.27;118.99
584;HTU21D;27024;54.068;12.116;2023-12-28T11:22:07;10.26;118.99
584;HTU21D;27024;54.068;12.116;2023-12-28T11:24:34;10.50;118.99
584;HTU21D;27024;54.068;12.116;2023-12-28T11:27:01;10.88;118.99
584;HTU21D;27024;54.068;12.116;2023-12-28T11:29:29;10.90;118.99
584;HTU21D;27024;54.068;12.116;2023-12-28T11:31:58;10.86;118.99
584;HTU21D;27024;54.068;12.116;2023-12-28T11:34:28;10.63;118.99
584;HTU21D;27024;54.068;12.116;2023-12-28T11:36:57;10.62;118.99
584;HTU21D;27024;54.068;12.116;2023-12-28T11:39:31;10.51;118.99
584;HTU21D;27024;54.068;12.116;2023-12-28T11:42:03;10.48;118.99
584;HTU21D;27024;54.068;12.116;2023-12-28T11:44:43;10.38;118.99
584;HTU21D;27024;54.068;12.116;2023-12-28T11:47:23;10.34;118.99
584;HTU21D;27024;54.068;12.116;2023-12-28T11:49:50;10.27;118.99
584;HTU21D;27024;54.068;12.116;2023-12-28T11:54:52;10.24;118.99
584;HTU21D;27024;54.068;12.116;2023-12-28T11:57:20;10.30;118.99
584;HTU21D;27024;54.068;12.116;2023-12-28T11:59:52;10.20;118.99
584;HTU21D;27024;54.068;12.116;2023-12-28T12:02:20;10.18;118.99
584;HTU21D;27024;54.068;12.116;2023-12-28T12:04:48;10.20;118.99
584;HTU21D;27024;54.068;12.116;2023-12-28T12:10:34;10.25;118.99
584;HTU21D;27024;54.068;12.116;2023-12-28T12:13:02;10.26;118.99
584;HTU21D;27024;54.068;12.116;2023-12-28T12:15:31;10.35;118.99
584;HTU21D;27024;54.068;12.116;2023-12-28T12:17:58;10.39;118.99
584;HTU21D;27024;54.068;12.116;2023-12-28T12:20:25;10.37;118.99
584;HTU21D;27024;54.068;12.116;2023-12-28T12:22:53;10.36;118.99
584;HTU21D;27024;54.068;12.116;2023-12-28T12:25:20;10.40;118.99
584;HTU21D;27024;54.068;12.116;2023-12-28T12:27:47;10.39;118.99
584;HTU21D;27024;54.068;12.116;2023-12-28T12:30:14;10.36;118.99
584;HTU21D;27024;54.068;12.116;2023-12-28T12:32:41;10.27;118.99
584;HTU21D;27024;54.068;12.116;2023-12-28T12:35:10;10.33;118.99
584;HTU21D;27024;54.068;12.116;2023-12-28T12:37:38;10.27;118.99
584;HTU21D;27024;54.068;12.116;2023-12-28T12:40:08;10.25;118.99
584;HTU21D;27024;54.068;12.116;2023-12-28T12:42:38;10.25;118.99
584;HTU21D;27024;54.068;12.116;2023-12-28T12:45:06;10.25;118.99
584;HTU21D;27024;54.068;12.116;2023-12-28T12:47:33;10.21;118.99
584;HTU21D;27024;54.068;12.116;2023-12-28T12:50:01;10.18;118.99
584;HTU21D;27024;54.068;12.116;2023-12-28T12:52:28;10.15;118.99
584;HTU21D;27024;54.068;12.116;2023-12-28T12:54:58;10.10;118.99
584;HTU21D;27024;54.068;12.116;2023-12-28T12:57:26;10.22;118.99
584;HTU21D;27024;54.068;12.116;2023-12-28T12:59:54;10.30;118.99
584;HTU21D;27024;54.068;12.116;2023-12-28T13:02:25;10.23;118.99
584;HTU21D;27024;54.068;12.116;2023-12-28T13:04:55;10.22;118.99
584;HTU21D;27024;54.068;12.116;2023-12-28T13:07:22;10.23;118.99
584;HTU21D;27024;54.068;12.116;2023-12-28T13:09:49;10.22;118.99
584;HTU21D;27024;54.068;12.116;2023-12-28T13:12:16;10.23;118.99
584;HTU21D;27024;54.068;12.116;2023-12-28T13:14:43;10.23;118.99
584;HTU21D;27024;54.068;12.116;2023-12-28T13:17:11;10.24;118.99
584;HTU21D;27024;54.068;12.116;2023-12-28T13:19:38;10.24;118.99
584;HTU21D;27024;54.068;12.116;2023-12-28T13:22:05;10.23;118.99
584;HTU21D;27024;54.068;12.116;2023-12-28T13:24:32;10.16;118.99
584;HTU21D;27024;54.068;12.116;2023-12-28T13:27:00;10.15;118.99
584;HTU21D;27024;54.068;12.116;2023-12-28T13:29:27;10.16;118.99
584;HTU21D;27024;54.068;12.116;2023-12-28T13:31:54;10.13;118.99
584;HTU21D;27024;54.068;12.116;2023-12-28T13:34:21;10.09;118.99
584;HTU21D;27024;54.068;12.116;2023-12-28T13:36:50;10.18;118.99
584;HTU21D;27024;54.068;12.116;2023-12-28T13:39:17;10.08;118.99
584;HTU21D;27024;54.068;12.116;2023-12-28T13:41:44;10.06;118.99
584;HTU21D;27024;54.068;12.116;2023-12-28T13:44:12;10.06;118.99
584;HTU21D;27024;54.068;12.116;2023-12-28T13:46:39;10.04;118.99
584;HTU21D;27024;54.068;12.116;2023-12-28T13:49:06;10.11;118.99
584;HTU21D;27024;54.068;12.116;2023-12-28T13:51:34;10.05;118.99
584;HTU21D;27024;54.068;12.116;2023-12-28T13:54:02;10.14;118.99
584;HTU21D;27024;54.068;12.116;2023-12-28T13:56:32;10.08;118.99
584;HTU21D;27024;54.068;12.116;2023-12-28T13:58:59;10.07;118.99
584;HTU21D;27024;54.068;12.116;2023-12-28T14:01:26;10.04;118.99
584;HTU21D;27024;54.068;12.116;2023-12-28T14:03:53;10.00;118.99
584;HTU21D;27024;54.068;12.116;2023-12-28T14:06:20;10.04;118.99
584;HTU21D;27024;54.068;12.116;2023-12-28T14:08:47;9.95;118.99
584;HTU21D;27024;54.068;12.116;2023-12-28T14:11:17;9.91;118.99
584;HTU21D;27024;54.068;12.116;2023-12-28T14:13:44;9.89;118.99
584;HTU21D;27024;54.068;12.116;2023-12-28T14:16:11;9.94;118.99
584;HTU21D;27024;54.068;12.116;2023-12-28T14:18:38;9.89;118.99
584;HTU21D;27024;54.068;12.116;2023-12-28T14:21:09;9.94;118.99
584;HTU21D;27024;54.068;12.116;2023-12-28T14:23:36;9.91;118.99
584;HTU21D;27024;54.068;12.116;2023-12-28T14:26:14;9.88;118.99
584;HTU21D;27024;54.068;12.116;2023-12-28T14:28:41;9.83;118.99
584;HTU21D;27024;54.068;12.116;2023-12-28T14:31:10;9.81;118.99
584;HTU21D;27024;54.068;12.116;2023-12-28T14:33:38;9.80;118.99
584;HTU21D;27024;54.068;12.116;2023-12-28T14:36:32;9.78;118.99
584;HTU21D;27024;54.068;12.116;2023-12-28T14:39:00;9.74;118.99
584;HTU21D;27024;54.068;12.116;2023-12-28T14:41:35;9.74;118.99
584;HTU21D;27024;54.068;12.116;2023-12-28T14:44:02;9.76;118.99
584;HTU21D;27024;54.068;12.116;2023-12-28T14:46:29;9.74;118.99
584;HTU21D;27024;54.068;12.116;2023-12-28T14:48:56;9.79;118.99
584;HTU21D;27024;54.068;12.116;2023-12-28T14:51:24;9.75;118.99
584;HTU21D;27024;54.068;12.116;2023-12-28T14:53:51;9.77;118.99
584;HTU21D;27024;54.068;12.116;2023-12-28T14:56:18;9.71;118.99
584;HTU21D;27024;54.068;12.116;2023-12-28T14:58:45;9.71;118.99
584;HTU21D;27024;54.068;12.116;2023-12-28T15:01:14;9.75;118.99
584;HTU21D;27024;54.068;12.116;2023-12-28T15:03:42;9.78;118.99
584;HTU21D;27024;54.068;12.116;2023-12-28T15:06:09;9.54;118.99
584;HTU21D;27024;54.068;12.116;2023-12-28T15:08:37;9.32;118.99
584;HTU21D;27024;54.068;12.116;2023-12-28T15:11:04;9.18;118.99
584;HTU21D;27024;54.068;12.116;2023-12-28T15:13:34;9.16;118.99
584;HTU21D;27024;54.068;12.116;2023-12-28T15:16:01;9.24;118.99
584;HTU21D;27024;54.068;12.116;2023-12-28T15:18:30;9.09;118.99
584;HTU21D;27024;54.068;12.116;2023-12-28T15:20:58;9.16;118.99
584;HTU21D;27024;54.068;12.116;2023-12-28T15:23:25;9.20;118.99
584;HTU21D;27024;54.068;12.116;2023-12-28T15:25:54;9.20;118.99
584;HTU21D;27024;54.068;12.116;2023-12-28T15:28:21;9.23;118.99
584;HTU21D;27024;54.068;12.116;2023-12-28T15:30:48;9.20;118.99
584;HTU21D;27024;54.068;12.116;2023-12-28T15:33:15;9.16;118.99
584;HTU21D;27024;54.068;12.116;2023-12-28T15:35:42;9.04;118.99
584;HTU21D;27024;54.068;12.116;2023-12-28T15:38:09;8.90;118.99
584;HTU21D;27024;54.068;12.116;2023-12-28T15:40:36;8.80;118.99
584;HTU21D;27024;54.068;12.116;2023-12-28T15:43:03;8.66;118.99
584;HTU21D;27024;54.068;12.116;2023-12-28T15:45:30;8.65;118.99
584;HTU21D;27024;54.068;12.116;2023-12-28T15:47:58;8.59;118.99